Weather at C 716 Heliport

Public forecast

Using degrees Celsius for public forecast. Weather courtesy of forecast.io.

Closest aviation weather report (METAR) to C 716 Heliport

Report is more than 6 hours old.

Closest report is Yeosu Airport, 19.1 nm (35.4 km) E. Retrieved 2015/02/21 07:40 UTC (7 years ago):

RKJY 210740Z 24001KT 2500 -RA BR SCT010 BKN025 OVC070 07/06 Q1016 NOSIG

Closest aviation forecast (TAF) to C 716 Heliport

Forecast is more than 12 hours old.

Closest forecast is Yeosu Airport, 19.1 nm (35.4 km) E. Retrieved 2015/02/25 19:24 UTC (7 years ago):

TAF COR TAF COR RKJY 251800Z 2519/2701 30006KT 6000 SCT030 BKN120 BECMG 2603/2604 31017G30KT CAVOK BECMG 2610/2611 32010KT TEMPO 2700/2701 32015G25KT